sensor_id;sensor_type;location;lat;lon;timestamp;pressure;altitude;pressure_sealevel;temperature;humidity
44996;BME280;30729;49.486;10.792;2022-10-17T00:01:04;98266.84;;;14.43;100.00
44996;BME280;30729;49.486;10.792;2022-10-17T00:03:29;98263.75;;;14.41;100.00
44996;BME280;30729;49.486;10.792;2022-10-17T00:05:55;98277.47;;;14.39;100.00
44996;BME280;30729;49.486;10.792;2022-10-17T00:08:20;98267.41;;;14.32;100.00
44996;BME280;30729;49.486;10.792;2022-10-17T00:10:58;98277.03;;;14.31;100.00
44996;BME280;30729;49.486;10.792;2022-10-17T00:13:24;98265.59;;;14.20;100.00
44996;BME280;30729;49.486;10.792;2022-10-17T00:15:50;98267.13;;;14.21;100.00
44996;BME280;30729;49.486;10.792;2022-10-17T00:18:15;98279.56;;;14.29;100.00
44996;BME280;30729;49.486;10.792;2022-10-17T00:20:40;98277.84;;;14.31;100.00
44996;BME280;30729;49.486;10.792;2022-10-17T00:23:06;98281.09;;;14.30;100.00
44996;BME280;30729;49.486;10.792;2022-10-17T00:25:31;98279.56;;;14.29;100.00
44996;BME280;30729;49.486;10.792;2022-10-17T00:27:57;98277.09;;;14.22;100.00
44996;BME280;30729;49.486;10.792;2022-10-17T00:30:22;98277.75;;;14.17;100.00
44996;BME280;30729;49.486;10.792;2022-10-17T00:32:47;98276.97;;;14.16;100.00
44996;BME280;30729;49.486;10.792;2022-10-17T00:35:13;98278.72;;;14.14;100.00
44996;BME280;30729;49.486;10.792;2022-10-17T00:37:38;98284.66;;;14.06;100.00
44996;BME280;30729;49.486;10.792;2022-10-17T00:40:04;98286.19;;;14.07;100.00
44996;BME280;30729;49.486;10.792;2022-10-17T00:42:30;98283.72;;;14.09;100.00
44996;BME280;30729;49.486;10.792;2022-10-17T00:45:12;98278.13;;;14.09;100.00
44996;BME280;30729;49.486;10.792;2022-10-17T00:47:38;98280.44;;;14.11;100.00
44996;BME280;30729;49.486;10.792;2022-10-17T00:50:05;98280.25;;;14.15;100.00
44996;BME280;30729;49.486;10.792;2022-10-17T00:52:31;98277.81;;;14.07;100.00
44996;BME280;30729;49.486;10.792;2022-10-17T00:55:06;98285.00;;;13.99;100.00
44996;BME280;30729;49.486;10.792;2022-10-17T00:57:34;98275.66;;;14.02;100.00
44996;BME280;30729;49.486;10.792;2022-10-17T01:00:01;98281.25;;;14.02;100.00
44996;BME280;30729;49.486;10.792;2022-10-17T01:02:28;98291.19;;;14.03;100.00
44996;BME280;30729;49.486;10.792;2022-10-17T01:04:55;98280.94;;;14.00;100.00
44996;BME280;30729;49.486;10.792;2022-10-17T01:07:21;98278.44;;;14.02;100.00
44996;BME280;30729;49.486;10.792;2022-10-17T01:09:47;98290.25;;;14.06;100.00
44996;BME280;30729;49.486;10.792;2022-10-17T01:12:28;98288.22;;;14.07;100.00
44996;BME280;30729;49.486;10.792;2022-10-17T01:15:28;98298.00;;;14.11;100.00
44996;BME280;30729;49.486;10.792;2022-10-17T01:18:13;98287.16;;;14.04;100.00
44996;BME280;30729;49.486;10.792;2022-10-17T01:21:08;98297.28;;;14.02;100.00
44996;BME280;30729;49.486;10.792;2022-10-17T01:23:59;98300.25;;;13.98;100.00
44996;BME280;30729;49.486;10.792;2022-10-17T01:26:51;98296.25;;;13.90;100.00
44996;BME280;30729;49.486;10.792;2022-10-17T01:31:57;98297.78;;;13.91;100.00
44996;BME280;30729;49.486;10.792;2022-10-17T01:37:16;98298.72;;;13.97;100.00
44996;BME280;30729;49.486;10.792;2022-10-17T01:39:45;98301.38;;;13.92;100.00
44996;BME280;30729;49.486;10.792;2022-10-17T01:42:38;98301.56;;;13.88;100.00
44996;BME280;30729;49.486;10.792;2022-10-17T01:45:20;98304.31;;;13.97;100.00
44996;BME280;30729;49.486;10.792;2022-10-17T01:47:51;98298.53;;;14.01;100.00
44996;BME280;30729;49.486;10.792;2022-10-17T01:50:28;98283.44;;;13.98;100.00
44996;BME280;30729;49.486;10.792;2022-10-17T01:53:01;98293.16;;;13.88;100.00
44996;BME280;30729;49.486;10.792;2022-10-17T01:55:35;98290.34;;;13.88;100.00
44996;BME280;30729;49.486;10.792;2022-10-17T01:58:06;98296.28;;;13.81;100.00
44996;BME280;30729;49.486;10.792;2022-10-17T02:00:33;98300.94;;;13.84;100.00
44996;BME280;30729;49.486;10.792;2022-10-17T02:03:04;98290.72;;;13.72;100.00
44996;BME280;30729;49.486;10.792;2022-10-17T02:05:35;98295.72;;;13.68;100.00
44996;BME280;30729;49.486;10.792;2022-10-17T02:08:02;98292.63;;;13.66;100.00
44996;BME280;30729;49.486;10.792;2022-10-17T02:10:54;98288.84;;;13.69;100.00
44996;BME280;30729;49.486;10.792;2022-10-17T02:13:30;98283.25;;;13.69;100.00
44996;BME280;30729;49.486;10.792;2022-10-17T02:16:07;98284.63;;;13.73;100.00
44996;BME280;30729;49.486;10.792;2022-10-17T02:21:32;98281.38;;;13.75;100.00
44996;BME280;30729;49.486;10.792;2022-10-17T02:24:24;98286.06;;;13.69;100.00
44996;BME280;30729;49.486;10.792;2022-10-17T02:29:29;98280.16;;;13.67;100.00
44996;BME280;30729;49.486;10.792;2022-10-17T02:32:06;98280.16;;;13.67;100.00
44996;BME280;30729;49.486;10.792;2022-10-17T02:34:40;98284.22;;;13.66;100.00
44996;BME280;30729;49.486;10.792;2022-10-17T02:37:08;98280.78;;;13.71;100.00
44996;BME280;30729;49.486;10.792;2022-10-17T02:39:38;98280.81;;;13.62;100.00
44996;BME280;30729;49.486;10.792;2022-10-17T02:42:06;98275.22;;;13.62;100.00
44996;BME280;30729;49.486;10.792;2022-10-17T02:44:36;98278.31;;;13.64;100.00
44996;BME280;30729;49.486;10.792;2022-10-17T02:47:24;98278.66;;;13.56;100.00
44996;BME280;30729;49.486;10.792;2022-10-17T02:49:54;98280.84;;;13.52;100.00
44996;BME280;30729;49.486;10.792;2022-10-17T02:55:02;98289.53;;;13.54;100.00
44996;BME280;30729;49.486;10.792;2022-10-17T02:57:34;98286.75;;;13.45;100.00
44996;BME280;30729;49.486;10.792;2022-10-17T03:00:04;98280.72;;;13.38;100.00
44996;BME280;30729;49.486;10.792;2022-10-17T03:02:40;98295.03;;;13.30;100.00
44996;BME280;30729;49.486;10.792;2022-10-17T03:05:08;98295.66;;;13.25;100.00
44996;BME280;30729;49.486;10.792;2022-10-17T03:07:34;98299.25;;;13.26;100.00
44996;BME280;30729;49.486;10.792;2022-10-17T03:10:00;98301.41;;;13.31;100.00
44996;BME280;30729;49.486;10.792;2022-10-17T03:12:25;98308.22;;;13.30;100.00
44996;BME280;30729;49.486;10.792;2022-10-17T03:14:50;98305.63;;;13.26;100.00
44996;BME280;30729;49.486;10.792;2022-10-17T03:17:16;98307.31;;;13.24;100.00
44996;BME280;30729;49.486;10.792;2022-10-17T03:19:41;98315.06;;;13.29;100.00
44996;BME280;30729;49.486;10.792;2022-10-17T03:22:06;98317.25;;;13.34;100.00
44996;BME280;30729;49.486;10.792;2022-10-17T03:24:32;98317.25;;;13.34;100.00
44996;BME280;30729;49.486;10.792;2022-10-17T03:26:57;98317.56;;;13.36;100.00
44996;BME280;30729;49.486;10.792;2022-10-17T03:29:23;98318.81;;;13.35;100.00
44996;BME280;30729;49.486;10.792;2022-10-17T03:31:48;98328.28;;;13.28;100.00
44996;BME280;30729;49.486;10.792;2022-10-17T03:34:13;98328.44;;;13.25;100.00
44996;BME280;30729;49.486;10.792;2022-10-17T03:36:41;98323.78;;;13.22;100.00
44996;BME280;30729;49.486;10.792;2022-10-17T03:39:07;98332.97;;;13.22;100.00
44996;BME280;30729;49.486;10.792;2022-10-17T03:41:33;98329.38;;;13.22;100.00
44996;BME280;30729;49.486;10.792;2022-10-17T03:43:59;98335.91;;;13.19;100.00
44996;BME280;30729;49.486;10.792;2022-10-17T03:46:25;98333.72;;;13.14;100.00
44996;BME280;30729;49.486;10.792;2022-10-17T03:48:50;98329.69;;;13.15;100.00
44996;BME280;30729;49.486;10.792;2022-10-17T03:51:16;98327.50;;;13.09;100.00
44996;BME280;30729;49.486;10.792;2022-10-17T03:53:41;98336.06;;;13.15;100.00
44996;BME280;30729;49.486;10.792;2022-10-17T03:56:20;98337.44;;;13.20;100.00
44996;BME280;30729;49.486;10.792;2022-10-17T03:58:47;98341.66;;;13.15;100.00
44996;BME280;30729;49.486;10.792;2022-10-17T04:01:14;98336.34;;;13.08;100.00
44996;BME280;30729;49.486;10.792;2022-10-17T04:03:40;98342.75;;;13.08;100.00
44996;BME280;30729;49.486;10.792;2022-10-17T04:06:06;98348.34;;;13.08;100.00
44996;BME280;30729;49.486;10.792;2022-10-17T04:08:32;98341.94;;;13.08;100.00
44996;BME280;30729;49.486;10.792;2022-10-17T04:11:02;98345.06;;;13.10;100.00
44996;BME280;30729;49.486;10.792;2022-10-17T04:13:29;98346.31;;;13.18;100.00
44996;BME280;30729;49.486;10.792;2022-10-17T04:15:59;98342.91;;;13.23;100.00
44996;BME280;30729;49.486;10.792;2022-10-17T04:18:24;98342.16;;;13.23;100.00
44996;BME280;30729;49.486;10.792;2022-10-17T04:20:50;98349.41;;;13.20;100.00
44996;BME280;30729;49.486;10.792;2022-10-17T04:23:16;98354.09;;;13.14;100.00
44996;BME280;30729;49.486;10.792;2022-10-17T04:25:42;98349.75;;;13.13;100.00
44996;BME280;30729;49.486;10.792;2022-10-17T04:28:07;98352.84;;;13.15;100.00
44996;BME280;30729;49.486;10.792;2022-10-17T04:30:32;98351.44;;;13.10;100.00
44996;BME280;30729;49.486;10.792;2022-10-17T04:32:58;98352.22;;;13.11;100.00
44996;BME280;30729;49.486;10.792;2022-10-17T04:35:23;98349.25;;;13.05;100.00
44996;BME280;30729;49.486;10.792;2022-10-17T04:37:49;98358.13;;;13.04;100.00
44996;BME280;30729;49.486;10.792;2022-10-17T04:40:14;98363.88;;;13.00;100.00
44996;BME280;30729;49.486;10.792;2022-10-17T04:42:40;98352.22;;;13.02;100.00
44996;BME280;30729;49.486;10.792;2022-10-17T04:45:05;98364.50;;;13.04;100.00
44996;BME280;30729;49.486;10.792;2022-10-17T04:47:31;98352.53;;;13.04;100.00
44996;BME280;30729;49.486;10.792;2022-10-17T04:49:56;98363.53;;;12.98;100.00
44996;BME280;30729;49.486;10.792;2022-10-17T04:52:22;98363.09;;;12.91;100.00
44996;BME280;30729;49.486;10.792;2022-10-17T04:54:49;98360.13;;;12.94;100.00
44996;BME280;30729;49.486;10.792;2022-10-17T04:57:14;98351.44;;;12.92;100.00
44996;BME280;30729;49.486;10.792;2022-10-17T04:59:40;98354.53;;;12.94;100.00
44996;BME280;30729;49.486;10.792;2022-10-17T05:02:05;98358.56;;;12.93;100.00
44996;BME280;30729;49.486;10.792;2022-10-17T05:04:30;98365.09;;;12.90;100.00
44996;BME280;30729;49.486;10.792;2022-10-17T05:06:56;98368.50;;;13.03;100.00
44996;BME280;30729;49.486;10.792;2022-10-17T05:09:21;98366.53;;;13.13;100.00
44996;BME280;30729;49.486;10.792;2022-10-17T05:11:46;98371.94;;;13.17;100.00
44996;BME280;30729;49.486;10.792;2022-10-17T05:14:12;98365.41;;;13.20;100.00
44996;BME280;30729;49.486;10.792;2022-10-17T05:16:37;98363.88;;;13.19;100.00
44996;BME280;30729;49.486;10.792;2022-10-17T05:19:02;98362.94;;;13.13;100.00
44996;BME280;30729;49.486;10.792;2022-10-17T05:21:29;98366.03;;;12.87;100.00
44996;BME280;30729;49.486;10.792;2022-10-17T05:23:55;98373.81;;;12.83;100.00
44996;BME280;30729;49.486;10.792;2022-10-17T05:26:21;98372.06;;;12.76;100.00
44996;BME280;30729;49.486;10.792;2022-10-17T05:28:47;98361.50;;;12.80;100.00
44996;BME280;30729;49.486;10.792;2022-10-17T05:31:13;98380.94;;;12.75;100.00
44996;BME280;30729;49.486;10.792;2022-10-17T05:33:38;98375.34;;;12.75;100.00
44996;BME280;30729;49.486;10.792;2022-10-17T05:36:05;98380.59;;;12.73;100.00
44996;BME280;30729;49.486;10.792;2022-10-17T05:38:31;98381.06;;;12.71;100.00
44996;BME280;30729;49.486;10.792;2022-10-17T05:40:57;98378.13;;;12.66;100.00
44996;BME280;30729;49.486;10.792;2022-10-17T05:43:23;98375.34;;;12.75;100.00
44996;BME280;30729;49.486;10.792;2022-10-17T05:45:48;98380.00;;;12.69;100.00
44996;BME280;30729;49.486;10.792;2022-10-17T05:48:14;98377.78;;;12.64;100.00
44996;BME280;30729;49.486;10.792;2022-10-17T05:50:39;98381.69;;;12.66;100.00
44996;BME280;30729;49.486;10.792;2022-10-17T05:53:04;98379.03;;;12.63;100.00
44996;BME280;30729;49.486;10.792;2022-10-17T05:55:30;98391.09;;;12.50;100.00
44996;BME280;30729;49.486;10.792;2022-10-17T05:57:55;98399.47;;;12.41;100.00
44996;BME280;30729;49.486;10.792;2022-10-17T06:00:21;98401.25;;;12.17;100.00
44996;BME280;30729;49.486;10.792;2022-10-17T06:02:46;98396.34;;;12.30;100.00
44996;BME280;30729;49.486;10.792;2022-10-17T06:05:13;98402.72;;;12.40;100.00
44996;BME280;30729;49.486;10.792;2022-10-17T06:07:38;98406.38;;;12.18;100.00
44996;BME280;30729;49.486;10.792;2022-10-17T06:10:04;98417.38;;;12.13;100.00
44996;BME280;30729;49.486;10.792;2022-10-17T06:12:29;98418.69;;;11.99;100.00
44996;BME280;30729;49.486;10.792;2022-10-17T06:14:55;98419.69;;;11.83;100.00
44996;BME280;30729;49.486;10.792;2022-10-17T06:17:20;98417.31;;;12.03;100.00
44996;BME280;30729;49.486;10.792;2022-10-17T06:19:46;98419.56;;;12.18;100.00
44996;BME280;30729;49.486;10.792;2022-10-17T06:22:12;98408.28;;;12.30;100.00
44996;BME280;30729;49.486;10.792;2022-10-17T06:24:37;98413.56;;;12.38;100.00
44996;BME280;30729;49.486;10.792;2022-10-17T06:27:02;98420.25;;;12.31;100.00
44996;BME280;30729;49.486;10.792;2022-10-17T06:29:28;98413.09;;;12.30;100.00
44996;BME280;30729;49.486;10.792;2022-10-17T06:31:53;98421.50;;;12.39;100.00
44996;BME280;30729;49.486;10.792;2022-10-17T06:34:19;98427.44;;;12.50;100.00
44996;BME280;30729;49.486;10.792;2022-10-17T06:36:45;98427.16;;;12.57;100.00
44996;BME280;30729;49.486;10.792;2022-10-17T06:39:11;98417.25;;;12.66;100.00
44996;BME280;30729;49.486;10.792;2022-10-17T06:41:36;98431.22;;;12.66;100.00
44996;BME280;30729;49.486;10.792;2022-10-17T06:44:02;98443.34;;;12.72;100.00
44996;BME280;30729;49.486;10.792;2022-10-17T06:46:33;98441.81;;;12.80;100.00
44996;BME280;30729;49.486;10.792;2022-10-17T06:48:59;98444.59;;;12.80;100.00
44996;BME280;30729;49.486;10.792;2022-10-17T06:51:24;98447.72;;;12.82;100.00
44996;BME280;30729;49.486;10.792;2022-10-17T06:53:49;98450.84;;;12.84;100.00
44996;BME280;30729;49.486;10.792;2022-10-17T06:56:15;98447.56;;;12.85;100.00
44996;BME280;30729;49.486;10.792;2022-10-17T06:58:40;98454.56;;;12.99;100.00
44996;BME280;30729;49.486;10.792;2022-10-17T07:01:11;98454.31;;;13.16;100.00
44996;BME280;30729;49.486;10.792;2022-10-17T07:03:37;98468.50;;;13.30;100.00
44996;BME280;30729;49.486;10.792;2022-10-17T07:06:04;98467.09;;;13.53;100.00
44996;BME280;30729;49.486;10.792;2022-10-17T07:08:30;98466.31;;;13.80;100.00
44996;BME280;30729;49.486;10.792;2022-10-17T07:10:56;98464.22;;;14.08;100.00
44996;BME280;30729;49.486;10.792;2022-10-17T07:13:22;98458.88;;;14.29;100.00
44996;BME280;30729;49.486;10.792;2022-10-17T07:15:47;98450.44;;;14.38;100.00
44996;BME280;30729;49.486;10.792;2022-10-17T07:18:13;98454.50;;;14.37;100.00
44996;BME280;30729;49.486;10.792;2022-10-17T07:20:39;98456.97;;;14.53;100.00
44996;BME280;30729;49.486;10.792;2022-10-17T07:23:04;98466.88;;;14.64;100.00
44996;BME280;30729;49.486;10.792;2022-10-17T07:25:30;98463.38;;;14.78;100.00
44996;BME280;30729;49.486;10.792;2022-10-17T07:27:55;98460.84;;;14.89;100.00
44996;BME280;30729;49.486;10.792;2022-10-17T07:30:21;98466.84;;;14.97;100.00
44996;BME280;30729;49.486;10.792;2022-10-17T07:32:47;98473.06;;;15.01;100.00
44996;BME280;30729;49.486;10.792;2022-10-17T07:35:13;98457.97;;;14.98;100.00
44996;BME280;30729;49.486;10.792;2022-10-17T07:37:39;98469.03;;;15.02;100.00
44996;BME280;30729;49.486;10.792;2022-10-17T07:40:06;98463.81;;;15.09;100.00
44996;BME280;30729;49.486;10.792;2022-10-17T07:42:35;98471.53;;;15.24;100.00
44996;BME280;30729;49.486;10.792;2022-10-17T07:45:00;98477.53;;;15.31;100.00
44996;BME280;30729;49.486;10.792;2022-10-17T07:47:26;98475.19;;;15.54;100.00
44996;BME280;30729;49.486;10.792;2022-10-17T07:49:51;98468.47;;;15.75;100.00
44996;BME280;30729;49.486;10.792;2022-10-17T07:52:17;98471.81;;;16.03;100.00
44996;BME280;30729;49.486;10.792;2022-10-17T07:54:43;98467.94;;;16.16;100.00
44996;BME280;30729;49.486;10.792;2022-10-17T07:57:09;98463.16;;;16.36;100.00
44996;BME280;30729;49.486;10.792;2022-10-17T07:59:36;98469.06;;;16.53;100.00
44996;BME280;30729;49.486;10.792;2022-10-17T08:02:02;98465.38;;;16.62;100.00
44996;BME280;30729;49.486;10.792;2022-10-17T08:04:28;98472.41;;;16.87;100.00
44996;BME280;30729;49.486;10.792;2022-10-17T08:06:53;98468.50;;;16.99;100.00
44996;BME280;30729;49.486;10.792;2022-10-17T08:09:19;98473.38;;;17.19;100.00
44996;BME280;30729;49.486;10.792;2022-10-17T08:11:44;98470.00;;;17.35;100.00
44996;BME280;30729;49.486;10.792;2022-10-17T08:14:11;98483.44;;;17.46;100.00
44996;BME280;30729;49.486;10.792;2022-10-17T08:16:37;98481.25;;;17.35;100.00
44996;BME280;30729;49.486;10.792;2022-10-17T08:19:03;98480.00;;;17.57;100.00
44996;BME280;30729;49.486;10.792;2022-10-17T08:21:29;98482.22;;;17.73;100.00
44996;BME280;30729;49.486;10.792;2022-10-17T08:23:54;98482.72;;;17.72;100.00
44996;BME280;30729;49.486;10.792;2022-10-17T08:26:20;98481.28;;;18.02;100.00
44996;BME280;30729;49.486;10.792;2022-10-17T08:28:46;98477.19;;;18.03;100.00
44996;BME280;30729;49.486;10.792;2022-10-17T08:31:14;98479.53;;;18.05;100.00
44996;BME280;30729;49.486;10.792;2022-10-17T08:33:40;98478.84;;;18.16;100.00
44996;BME280;30729;49.486;10.792;2022-10-17T08:36:07;98463.06;;;18.29;100.00
44996;BME280;30729;49.486;10.792;2022-10-17T08:38:34;98462.22;;;18.49;100.00
44996;BME280;30729;49.486;10.792;2022-10-17T08:41:02;98458.88;;;18.51;100.00
44996;BME280;30729;49.486;10.792;2022-10-17T08:43:54;98466.13;;;18.57;100.00
44996;BME280;30729;49.486;10.792;2022-10-17T08:46:30;98462.00;;;18.53;100.00
44996;BME280;30729;49.486;10.792;2022-10-17T08:48:58;98470.00;;;18.66;100.00
44996;BME280;30729;49.486;10.792;2022-10-17T08:51:32;98468.41;;;18.85;100.00
44996;BME280;30729;49.486;10.792;2022-10-17T08:54:15;98458.84;;;18.77;100.00
44996;BME280;30729;49.486;10.792;2022-10-17T08:56:45;98464.72;;;18.73;100.00
44996;BME280;30729;49.486;10.792;2022-10-17T08:59:13;98464.16;;;19.06;100.00
44996;BME280;30729;49.486;10.792;2022-10-17T09:01:47;98466.81;;;19.21;100.00
44996;BME280;30729;49.486;10.792;2022-10-17T09:12:51;98462.16;;;19.72;100.00
44996;BME280;30729;49.486;10.792;2022-10-17T09:15:52;98463.41;;;19.66;100.00
44996;BME280;30729;49.486;10.792;2022-10-17T09:18:29;98463.75;;;19.84;100.00
44996;BME280;30729;49.486;10.792;2022-10-17T09:21:12;98459.91;;;19.93;100.00
44996;BME280;30729;49.486;10.792;2022-10-17T09:23:52;98455.25;;;19.90;100.00
44996;BME280;30729;49.486;10.792;2022-10-17T09:26:19;98456.84;;;20.02;100.00
44996;BME280;30729;49.486;10.792;2022-10-17T09:28:51;98459.66;;;20.19;100.00
44996;BME280;30729;49.486;10.792;2022-10-17T09:31:41;98458.44;;;20.48;100.00
44996;BME280;30729;49.486;10.792;2022-10-17T09:34:10;98464.59;;;20.58;100.00
44996;BME280;30729;49.486;10.792;2022-10-17T09:36:38;98463.56;;;20.78;100.00
44996;BME280;30729;49.486;10.792;2022-10-17T09:39:24;98461.75;;;20.58;100.00
44996;BME280;30729;49.486;10.792;2022-10-17T09:41:52;98459.19;;;20.49;100.00
44996;BME280;30729;49.486;10.792;2022-10-17T09:49:51;98461.72;;;20.92;100.00
44996;BME280;30729;49.486;10.792;2022-10-17T09:52:30;98461.44;;;21.06;100.00
44996;BME280;30729;49.486;10.792;2022-10-17T09:55:02;98458.09;;;21.08;100.00
44996;BME280;30729;49.486;10.792;2022-10-17T09:58:04;98466.25;;;21.28;100.00
44996;BME280;30729;49.486;10.792;2022-10-17T10:00:31;98453.56;;;21.57;100.00
44996;BME280;30729;49.486;10.792;2022-10-17T10:03:20;98456.50;;;21.87;100.00
44996;BME280;30729;49.486;10.792;2022-10-17T10:06:06;98463.59;;;22.05;100.00
44996;BME280;30729;49.486;10.792;2022-10-17T10:08:53;98465.63;;;22.10;100.00
44996;BME280;30729;49.486;10.792;2022-10-17T10:11:46;98465.19;;;22.01;100.00
44996;BME280;30729;49.486;10.792;2022-10-17T10:14:33;98460.69;;;22.22;100.00
44996;BME280;30729;49.486;10.792;2022-10-17T10:17:01;98464.22;;;21.87;100.00
44996;BME280;30729;49.486;10.792;2022-10-17T10:19:32;98460.63;;;21.81;100.00
44996;BME280;30729;49.486;10.792;2022-10-17T10:22:02;98460.22;;;21.66;100.00
44996;BME280;30729;49.486;10.792;2022-10-17T10:24:29;98456.59;;;21.71;100.00
44996;BME280;30729;49.486;10.792;2022-10-17T10:26:57;98465.69;;;21.99;100.00
44996;BME280;30729;49.486;10.792;2022-10-17T10:29:36;98469.44;;;22.54;100.00
44996;BME280;30729;49.486;10.792;2022-10-17T10:32:24;98466.81;;;22.92;100.00
44996;BME280;30729;49.486;10.792;2022-10-17T10:35:06;98472.63;;;23.05;100.00
44996;BME280;30729;49.486;10.792;2022-10-17T10:37:38;98467.28;;;23.21;100.00
44996;BME280;30729;49.486;10.792;2022-10-17T10:42:51;98460.25;;;23.27;100.00
44996;BME280;30729;49.486;10.792;2022-10-17T10:52:51;98451.59;;;23.14;100.00
44996;BME280;30729;49.486;10.792;2022-10-17T10:55:27;98457.94;;;22.71;100.00
44996;BME280;30729;49.486;10.792;2022-10-17T10:57:59;98452.84;;;22.64;100.00
44996;BME280;30729;49.486;10.792;2022-10-17T11:00:26;98452.22;;;22.47;100.00
44996;BME280;30729;49.486;10.792;2022-10-17T11:03:03;98445.22;;;22.78;100.00
44996;BME280;30729;49.486;10.792;2022-10-17T11:05:50;98443.78;;;23.20;100.00
44996;BME280;30729;49.486;10.792;2022-10-17T11:08:25;98450.22;;;23.45;100.00
44996;BME280;30729;49.486;10.792;2022-10-17T11:11:30;98446.84;;;23.66;100.00
44996;BME280;30729;49.486;10.792;2022-10-17T11:14:07;98451.38;;;23.74;100.00
44996;BME280;30729;49.486;10.792;2022-10-17T11:16:48;98446.13;;;23.59;100.00
44996;BME280;30729;49.486;10.792;2022-10-17T11:22:13;98442.81;;;23.80;100.00
44996;BME280;30729;49.486;10.792;2022-10-17T11:24:43;98441.72;;;23.83;100.00
44996;BME280;30729;49.486;10.792;2022-10-17T11:27:11;98456.38;;;23.87;100.00
44996;BME280;30729;49.486;10.792;2022-10-17T11:29:38;98439.09;;;24.04;100.00
44996;BME280;30729;49.486;10.792;2022-10-17T11:34:54;98442.13;;;24.25;100.00
44996;BME280;30729;49.486;10.792;2022-10-17T11:37:29;98433.38;;;24.55;100.00
44996;BME280;30729;49.486;10.792;2022-10-17T11:40:03;98433.66;;;24.38;100.00
44996;BME280;30729;49.486;10.792;2022-10-17T11:42:35;98431.19;;;24.29;100.00
44996;BME280;30729;49.486;10.792;2022-10-17T11:45:14;98424.41;;;24.32;100.00
44996;BME280;30729;49.486;10.792;2022-10-17T11:48:03;98428.69;;;24.71;100.00
44996;BME280;30729;49.486;10.792;2022-10-17T11:50:42;98427.22;;;25.09;100.00
44996;BME280;30729;49.486;10.792;2022-10-17T11:53:18;98431.06;;;25.25;100.00
44996;BME280;30729;49.486;10.792;2022-10-17T11:55:45;98437.25;;;24.97;100.00
44996;BME280;30729;49.486;10.792;2022-10-17T11:58:38;98443.47;;;24.56;100.00
44996;BME280;30729;49.486;10.792;2022-10-17T12:07:16;98428.09;;;25.18;100.00
44996;BME280;30729;49.486;10.792;2022-10-17T12:09:58;98432.22;;;25.70;100.00
44996;BME280;30729;49.486;10.792;2022-10-17T12:12:31;98423.72;;;25.30;100.00
44996;BME280;30729;49.486;10.792;2022-10-17T12:17:42;98418.78;;;25.30;100.00
44996;BME280;30729;49.486;10.792;2022-10-17T12:20:24;98412.88;;;25.76;100.00
44996;BME280;30729;49.486;10.792;2022-10-17T12:25:29;98401.97;;;25.53;100.00
44996;BME280;30729;49.486;10.792;2022-10-17T12:28:15;98401.00;;;25.85;100.00
44996;BME280;30729;49.486;10.792;2022-10-17T12:30:50;98403.00;;;25.77;100.00
44996;BME280;30729;49.486;10.792;2022-10-17T12:33:19;98396.53;;;25.16;100.00
44996;BME280;30729;49.486;10.792;2022-10-17T12:35:50;98385.91;;;25.16;100.00
44996;BME280;30729;49.486;10.792;2022-10-17T12:45:54;98377.94;;;25.49;100.00
44996;BME280;30729;49.486;10.792;2022-10-17T12:51:06;98382.88;;;25.48;100.00
44996;BME280;30729;49.486;10.792;2022-10-17T12:56:07;98394.34;;;25.82;100.00
44996;BME280;30729;49.486;10.792;2022-10-17T12:58:34;98395.00;;;26.51;100.00
44996;BME280;30729;49.486;10.792;2022-10-17T13:01:00;98392.78;;;26.78;100.00
44996;BME280;30729;49.486;10.792;2022-10-17T13:03:34;98412.50;;;26.97;100.00
44996;BME280;30729;49.486;10.792;2022-10-17T13:06:05;98416.41;;;27.36;100.00
44996;BME280;30729;49.486;10.792;2022-10-17T13:08:37;98420.91;;;26.32;100.00
44996;BME280;30729;49.486;10.792;2022-10-17T13:11:07;98415.22;;;25.77;100.00
44996;BME280;30729;49.486;10.792;2022-10-17T13:13:45;98406.19;;;26.07;100.00
44996;BME280;30729;49.486;10.792;2022-10-17T13:16:30;98421.13;;;26.34;100.00
44996;BME280;30729;49.486;10.792;2022-10-17T13:18:57;98421.31;;;26.16;100.00
44996;BME280;30729;49.486;10.792;2022-10-17T13:21:22;98412.09;;;26.44;100.00
44996;BME280;30729;49.486;10.792;2022-10-17T13:23:48;98413.81;;;26.26;100.00
44996;BME280;30729;49.486;10.792;2022-10-17T13:26:20;98419.75;;;26.70;100.00
44996;BME280;30729;49.486;10.792;2022-10-17T13:29:09;98407.41;;;26.75;100.00
44996;BME280;30729;49.486;10.792;2022-10-17T13:31:40;98416.06;;;26.61;100.00
44996;BME280;30729;49.486;10.792;2022-10-17T13:34:18;98413.47;;;26.71;100.00
44996;BME280;30729;49.486;10.792;2022-10-17T13:36:49;98414.34;;;27.44;100.00
44996;BME280;30729;49.486;10.792;2022-10-17T13:39:18;98412.78;;;27.43;99.62
44996;BME280;30729;49.486;10.792;2022-10-17T13:41:44;98413.84;;;27.25;100.00
44996;BME280;30729;49.486;10.792;2022-10-17T13:44:15;98413.16;;;27.76;100.00
44996;BME280;30729;49.486;10.792;2022-10-17T13:46:41;98408.22;;;27.84;100.00
44996;BME280;30729;49.486;10.792;2022-10-17T13:51:35;98407.03;;;28.46;90.34
44996;BME280;30729;49.486;10.792;2022-10-17T13:54:00;98410.91;;;27.46;95.73
44996;BME280;30729;49.486;10.792;2022-10-17T13:56:26;98411.16;;;28.15;96.69
44996;BME280;30729;49.486;10.792;2022-10-17T13:58:54;98412.75;;;28.54;91.63
44996;BME280;30729;49.486;10.792;2022-10-17T14:01:23;98413.31;;;28.45;90.17
44996;BME280;30729;49.486;10.792;2022-10-17T14:03:49;98419.53;;;27.61;87.78
44996;BME280;30729;49.486;10.792;2022-10-17T14:06:24;98418.97;;;27.19;91.51